Time;durP1;ratioP1;P1;durP2;ratioP2;P2;SDS_P1;SDS_P2;PMS_P1;PMS_P2;Temp;Humidity;BMP_temperature;BMP_pressure;BME280_temperature;BME280_humidity;BME280_pressure;Samples;Min_cycle;Max_cycle;Signal;HPM_P1;HPM_P2
2024/01/31 00:01:35;;;;;;;23.47;12.30;;;;;;;;;;775298;178;1021705;-65
2024/01/31 00:04:01;;;;;;;21.77;13.50;;;;;;;;;;783553;178;918359;-65
2024/01/31 00:06:27;;;;;;;21.63;11.70;;;;;;;;;;778136;177;923899;-67
2024/01/31 00:08:53;;;;;;;23.77;12.23;;;;;;;;;;779661;176;818984;-61
2024/01/31 00:11:18;;;;;;;22.47;14.37;;;;;;;;;;783690;178;918709;-65
2024/01/31 00:13:44;;;;;;;22.67;12.57;;;;;;;;;;781188;177;918479;-65
2024/01/31 00:16:12;;;;;;;18.17;12.00;;;;;;;;;;778777;178;896609;-65
2024/01/31 00:18:36;;;;;;;24.07;13.70;;;;;;;;;;782204;178;819055;-62
2024/01/31 00:21:02;;;;;;;23.48;13.82;;;;;;;;;;782263;177;920849;-62
2024/01/31 00:23:28;;;;;;;22.10;13.83;;;;;;;;;;778489;178;916949;-65
2024/01/31 00:25:54;;;;;;;21.10;12.63;;;;;;;;;;778220;178;921440;-61
2024/01/31 00:28:19;;;;;;;24.87;13.00;;;;;;;;;;790438;177;916440;-64
2024/01/31 00:30:45;;;;;;;21.50;12.63;;;;;;;;;;778620;177;920599;-65
2024/01/31 00:33:11;;;;;;;22.60;13.73;;;;;;;;;;778253;177;917239;-62
2024/01/31 00:35:37;;;;;;;26.90;14.80;;;;;;;;;;785390;177;917922;-66
2024/01/31 00:38:03;;;;;;;27.37;12.40;;;;;;;;;;785103;177;916178;-61
2024/01/31 00:40:29;;;;;;;26.20;14.87;;;;;;;;;;777224;177;919644;-66
2024/01/31 00:42:55;;;;;;;26.67;12.37;;;;;;;;;;785265;177;919153;-62
2024/01/31 00:45:20;;;;;;;20.62;13.20;;;;;;;;;;778261;178;919377;-65
2024/01/31 00:47:46;;;;;;;24.40;14.10;;;;;;;;;;780453;178;928481;-62
2024/01/31 00:50:12;;;;;;;27.17;14.17;;;;;;;;;;788687;177;919384;-60
2024/01/31 00:52:38;;;;;;;24.97;14.67;;;;;;;;;;781829;177;923492;-66
2024/01/31 00:55:04;;;;;;;31.77;13.90;;;;;;;;;;782548;177;866657;-62
2024/01/31 00:57:30;;;;;;;23.37;13.73;;;;;;;;;;781584;177;918947;-62
2024/01/31 00:59:56;;;;;;;28.93;14.93;;;;;;;;;;785327;178;918426;-66
2024/01/31 01:02:22;;;;;;;20.50;12.20;;;;;;;;;;778183;178;916432;-61
2024/01/31 01:04:48;;;;;;;23.63;13.50;;;;;;;;;;782241;175;958588;-67
2024/01/31 01:07:13;;;;;;;23.33;13.60;;;;;;;;;;784987;178;919452;-67
2024/01/31 01:09:39;;;;;;;23.20;13.13;;;;;;;;;;774321;178;917449;-65
2024/01/31 01:12:05;;;;;;;24.87;13.60;;;;;;;;;;782723;177;918755;-62
2024/01/31 01:14:31;;;;;;;26.17;14.50;;;;;;;;;;786162;177;919184;-67
2024/01/31 01:16:57;;;;;;;32.47;13.33;;;;;;;;;;779876;178;918595;-62
2024/01/31 01:19:23;;;;;;;27.57;14.00;;;;;;;;;;771021;179;920945;-65
2024/01/31 01:21:48;;;;;;;26.60;13.83;;;;;;;;;;777079;177;921310;-62
2024/01/31 01:24:14;;;;;;;22.67;13.95;;;;;;;;;;783394;177;918109;-61
2024/01/31 01:26:40;;;;;;;23.90;13.50;;;;;;;;;;781644;177;929295;-61
2024/01/31 01:29:06;;;;;;;26.37;14.73;;;;;;;;;;779929;177;917860;-66
2024/01/31 01:31:32;;;;;;;26.53;14.70;;;;;;;;;;783447;177;918936;-65
2024/01/31 01:33:59;;;;;;;27.30;12.97;;;;;;;;;;780607;177;919171;-62
2024/01/31 01:36:23;;;;;;;24.00;15.20;;;;;;;;;;775719;178;929470;-65
2024/01/31 01:38:49;;;;;;;24.60;13.13;;;;;;;;;;786163;177;916855;-61
2024/01/31 01:41:15;;;;;;;23.90;14.40;;;;;;;;;;784251;176;919847;-61
2024/01/31 01:43:42;;;;;;;25.03;13.57;;;;;;;;;;779417;177;918263;-65
2024/01/31 01:46:17;;;;;;;26.03;14.77;;;;;;;;;;785819;177;878477;-61
2024/01/31 01:48:43;;;;;;;27.47;15.20;;;;;;;;;;788156;178;918864;-65
2024/01/31 01:51:09;;;;;;;25.33;14.70;;;;;;;;;;780001;178;918846;-63
2024/01/31 01:53:37;;;;;;;26.27;13.97;;;;;;;;;;774203;180;919284;-62
2024/01/31 01:56:04;;;;;;;20.50;13.80;;;;;;;;;;789712;177;918499;-65
2024/01/31 01:58:30;;;;;;;25.50;13.20;;;;;;;;;;783826;176;919674;-62
2024/01/31 02:00:55;;;;;;;23.13;13.50;;;;;;;;;;777471;177;1020742;-61
2024/01/31 02:03:21;;;;;;;24.00;15.00;;;;;;;;;;780631;176;920936;-62
2024/01/31 02:05:47;;;;;;;26.77;15.50;;;;;;;;;;784138;177;920341;-61
2024/01/31 02:08:13;;;;;;;25.53;14.87;;;;;;;;;;781712;177;816389;-61
2024/01/31 02:10:39;;;;;;;25.50;15.50;;;;;;;;;;776946;177;919194;-61
2024/01/31 02:13:05;;;;;;;27.07;14.53;;;;;;;;;;784679;178;916864;-65
2024/01/31 02:15:31;;;;;;;27.83;14.83;;;;;;;;;;785007;177;816715;-62
2024/01/31 02:17:56;;;;;;;24.03;14.57;;;;;;;;;;780906;177;918787;-63
2024/01/31 02:20:22;;;;;;;24.20;13.93;;;;;;;;;;787137;177;919182;-61
2024/01/31 02:22:48;;;;;;;24.50;13.83;;;;;;;;;;780789;177;920233;-65
2024/01/31 02:25:14;;;;;;;25.17;14.90;;;;;;;;;;779240;178;919235;-64
2024/01/31 02:27:40;;;;;;;26.37;13.70;;;;;;;;;;778795;178;918642;-62
2024/01/31 02:30:06;;;;;;;29.97;15.50;;;;;;;;;;780283;179;918086;-63
2024/01/31 02:32:32;;;;;;;26.17;15.20;;;;;;;;;;773937;177;919857;-62
2024/01/31 02:34:58;;;;;;;28.62;15.52;;;;;;;;;;784550;177;920836;-62
2024/01/31 02:37:24;;;;;;;24.10;16.40;;;;;;;;;;780820;177;918890;-62
2024/01/31 02:39:50;;;;;;;27.03;14.80;;;;;;;;;;778932;177;919434;-66
2024/01/31 02:42:15;;;;;;;29.47;16.40;;;;;;;;;;781873;177;814498;-62
2024/01/31 02:44:41;;;;;;;26.60;14.47;;;;;;;;;;783113;178;919183;-62
2024/01/31 02:47:07;;;;;;;25.00;14.00;;;;;;;;;;780275;178;918078;-65
2024/01/31 02:49:33;;;;;;;28.90;16.07;;;;;;;;;;781453;178;811871;-62
2024/01/31 02:51:59;;;;;;;28.38;17.20;;;;;;;;;;781516;178;917657;-67
2024/01/31 02:54:25;;;;;;;30.53;16.07;;;;;;;;;;778045;178;915922;-62
2024/01/31 02:56:51;;;;;;;27.10;15.00;;;;;;;;;;781278;177;915431;-66
2024/01/31 02:59:19;;;;;;;25.30;15.33;;;;;;;;;;779897;178;919389;-66
2024/01/31 03:01:44;;;;;;;29.10;15.03;;;;;;;;;;787356;177;919888;-62
2024/01/31 03:04:10;;;;;;;27.20;16.23;;;;;;;;;;781708;177;919037;-62
2024/01/31 03:06:35;;;;;;;33.43;16.00;;;;;;;;;;780383;178;922223;-65
2024/01/31 03:09:01;;;;;;;25.90;15.33;;;;;;;;;;778923;177;923698;-64
2024/01/31 03:11:27;;;;;;;25.93;15.67;;;;;;;;;;779164;176;920534;-67
2024/01/31 03:13:53;;;;;;;25.63;16.30;;;;;;;;;;782032;177;879521;-66
2024/01/31 03:16:19;;;;;;;27.37;16.10;;;;;;;;;;789723;177;820756;-62
2024/01/31 03:18:45;;;;;;;24.40;14.37;;;;;;;;;;781069;176;930751;-64
2024/01/31 03:21:10;;;;;;;31.87;17.27;;;;;;;;;;778381;178;1021875;-65
2024/01/31 03:23:36;;;;;;;21.60;14.30;;;;;;;;;;778782;178;917163;-63
2024/01/31 03:26:02;;;;;;;27.55;15.93;;;;;;;;;;787651;177;894767;-65
2024/01/31 03:28:28;;;;;;;25.27;15.80;;;;;;;;;;780471;178;924384;-62
2024/01/31 03:30:54;;;;;;;33.70;15.63;;;;;;;;;;779065;178;918493;-64
2024/01/31 03:33:20;;;;;;;29.40;17.57;;;;;;;;;;785030;177;923666;-65
2024/01/31 03:35:46;;;;;;;31.60;18.27;;;;;;;;;;783360;178;918921;-62
2024/01/31 03:38:11;;;;;;;31.77;17.13;;;;;;;;;;778921;176;918937;-62
2024/01/31 03:40:37;;;;;;;29.63;17.67;;;;;;;;;;781813;178;919556;-65
2024/01/31 03:43:03;;;;;;;26.50;16.37;;;;;;;;;;776625;178;918059;-66
2024/01/31 03:45:29;;;;;;;31.40;16.30;;;;;;;;;;778047;178;918760;-61
2024/01/31 03:47:55;;;;;;;29.67;17.85;;;;;;;;;;783962;177;914209;-65
2024/01/31 03:50:21;;;;;;;30.03;18.70;;;;;;;;;;788853;177;899854;-62
2024/01/31 03:52:47;;;;;;;29.60;16.33;;;;;;;;;;779331;178;915258;-63
2024/01/31 03:55:12;;;;;;;27.90;17.00;;;;;;;;;;780283;178;918842;-61
2024/01/31 03:57:38;;;;;;;27.63;17.47;;;;;;;;;;789705;177;919601;-65
2024/01/31 04:00:05;;;;;;;33.00;18.35;;;;;;;;;;780714;178;817173;-62
2024/01/31 04:02:30;;;;;;;25.20;15.40;;;;;;;;;;773507;180;919025;-65
2024/01/31 04:04:58;;;;;;;27.17;16.57;;;;;;;;;;782309;177;917989;-65
2024/01/31 04:07:22;;;;;;;40.33;18.50;;;;;;;;;;776322;178;919547;-62
2024/01/31 04:09:48;;;;;;;28.87;16.27;;;;;;;;;;779350;178;919395;-62
2024/01/31 04:12:14;;;;;;;27.40;17.50;;;;;;;;;;789108;178;903015;-67
2024/01/31 04:14:40;;;;;;;26.20;18.00;;;;;;;;;;779457;177;1021250;-62
2024/01/31 04:17:05;;;;;;;29.30;19.47;;;;;;;;;;779042;178;819823;-67
2024/01/31 04:19:31;;;;;;;28.63;18.23;;;;;;;;;;779937;178;921872;-68
2024/01/31 04:21:57;;;;;;;29.93;17.57;;;;;;;;;;785593;178;914429;-65
2024/01/31 04:24:23;;;;;;;32.60;17.83;;;;;;;;;;777800;178;918720;-62
2024/01/31 04:26:49;;;;;;;28.70;18.07;;;;;;;;;;777421;177;918790;-65
2024/01/31 04:29:15;;;;;;;35.23;17.97;;;;;;;;;;786316;177;917714;-65
2024/01/31 04:31:41;;;;;;;28.80;17.03;;;;;;;;;;779905;177;918958;-63
2024/01/31 04:34:07;;;;;;;31.93;17.47;;;;;;;;;;776897;178;918972;-62
2024/01/31 04:36:32;;;;;;;31.03;17.57;;;;;;;;;;785478;178;919576;-65
2024/01/31 04:38:58;;;;;;;33.33;18.97;;;;;;;;;;777596;177;801596;-65
2024/01/31 04:41:24;;;;;;;33.53;18.80;;;;;;;;;;782207;179;919464;-66
2024/01/31 04:43:50;;;;;;;31.47;17.60;;;;;;;;;;789200;175;631730;-63
2024/01/31 04:46:16;;;;;;;32.03;17.57;;;;;;;;;;787253;179;612537;-67
2024/01/31 04:48:41;;;;;;;35.00;18.37;;;;;;;;;;789490;175;632477;-62
2024/01/31 04:51:07;;;;;;;29.07;17.90;;;;;;;;;;785963;178;630421;-62
2024/01/31 04:53:33;;;;;;;25.60;17.27;;;;;;;;;;789802;178;684736;-63
2024/01/31 04:55:59;;;;;;;38.57;18.10;;;;;;;;;;785147;177;628398;-62
2024/01/31 04:58:25;;;;;;;26.57;15.33;;;;;;;;;;782193;177;635054;-63
2024/01/31 05:00:51;;;;;;;27.73;16.77;;;;;;;;;;788917;177;690357;-63
2024/01/31 05:03:16;;;;;;;28.30;17.90;;;;;;;;;;781597;176;616760;-63
2024/01/31 05:05:43;;;;;;;28.83;17.80;;;;;;;;;;780103;177;626871;-62
2024/01/31 05:08:08;;;;;;;26.83;17.23;;;;;;;;;;784521;175;619968;-63
2024/01/31 05:10:35;;;;;;;33.47;18.70;;;;;;;;;;781363;178;676602;-64
2024/01/31 05:13:00;;;;;;;27.90;17.00;;;;;;;;;;785836;177;626056;-62
2024/01/31 05:15:26;;;;;;;33.50;17.77;;;;;;;;;;784020;177;750409;-63
2024/01/31 05:17:52;;;;;;;42.07;20.20;;;;;;;;;;782287;180;815127;-66
2024/01/31 05:20:17;;;;;;;38.57;20.40;;;;;;;;;;779053;178;916973;-66
2024/01/31 05:22:43;;;;;;;35.08;19.00;;;;;;;;;;777551;178;817773;-63
2024/01/31 05:25:09;;;;;;;31.20;17.87;;;;;;;;;;786063;177;621828;-63
2024/01/31 05:27:36;;;;;;;32.40;17.77;;;;;;;;;;781690;178;626896;-67
2024/01/31 05:30:01;;;;;;;29.30;17.43;;;;;;;;;;781687;177;716369;-67
2024/01/31 05:32:27;;;;;;;29.03;17.30;;;;;;;;;;789724;176;632673;-67
2024/01/31 05:34:52;;;;;;;27.70;17.07;;;;;;;;;;783359;178;645222;-67
2024/01/31 05:37:18;;;;;;;33.43;17.10;;;;;;;;;;783506;177;638778;-67
2024/01/31 05:39:44;;;;;;;32.23;18.03;;;;;;;;;;781477;177;642071;-63
2024/01/31 05:42:10;;;;;;;25.47;16.50;;;;;;;;;;790291;176;616798;-66
2024/01/31 05:44:36;;;;;;;31.20;17.30;;;;;;;;;;785713;178;623408;-63
2024/01/31 05:47:02;;;;;;;31.73;18.70;;;;;;;;;;784546;177;628467;-65
2024/01/31 05:49:28;;;;;;;32.23;17.37;;;;;;;;;;791180;177;630685;-63
2024/01/31 05:51:53;;;;;;;25.87;16.20;;;;;;;;;;783866;178;630422;-66
2024/01/31 05:54:19;;;;;;;35.00;19.03;;;;;;;;;;788959;177;621021;-63
2024/01/31 05:56:45;;;;;;;26.93;16.47;;;;;;;;;;788163;178;625477;-67
2024/01/31 05:59:11;;;;;;;26.83;16.83;;;;;;;;;;780343;178;633646;-66
2024/01/31 06:01:37;;;;;;;26.33;16.35;;;;;;;;;;781315;178;622933;-65
2024/01/31 06:04:03;;;;;;;33.90;18.90;;;;;;;;;;784261;178;918184;-62
2024/01/31 06:06:28;;;;;;;30.90;17.40;;;;;;;;;;776120;178;915390;-62
2024/01/31 06:08:54;;;;;;;38.80;18.13;;;;;;;;;;784378;177;817111;-62
2024/01/31 06:11:20;;;;;;;32.30;18.47;;;;;;;;;;781964;179;916561;-66
2024/01/31 06:13:46;;;;;;;32.30;18.43;;;;;;;;;;784911;178;983578;-63
2024/01/31 06:16:12;;;;;;;28.83;16.20;;;;;;;;;;781550;177;919133;-65
2024/01/31 06:18:38;;;;;;;29.23;18.40;;;;;;;;;;777944;178;920132;-63
2024/01/31 06:21:04;;;;;;;36.43;20.37;;;;;;;;;;785217;177;918971;-65
2024/01/31 06:23:30;;;;;;;32.60;19.43;;;;;;;;;;786293;175;920208;-65
2024/01/31 06:25:56;;;;;;;32.83;19.23;;;;;;;;;;777244;178;917310;-65
2024/01/31 06:28:21;;;;;;;26.90;17.67;;;;;;;;;;784794;178;913540;-62
2024/01/31 06:30:58;;;;;;;31.27;17.07;;;;;;;;;;780102;178;913916;-62
2024/01/31 06:33:14;;;;;;;32.00;17.73;;;;;;;;;;779506;177;918201;-66
2024/01/31 06:35:39;;;;;;;30.08;18.75;;;;;;;;;;780152;178;918822;-66
2024/01/31 06:38:05;;;;;;;28.80;19.00;;;;;;;;;;769188;182;918100;-63
2024/01/31 06:40:31;;;;;;;29.95;18.05;;;;;;;;;;767613;177;863049;-63
2024/01/31 06:42:57;;;;;;;31.47;17.47;;;;;;;;;;782321;177;915601;-67
2024/01/31 06:45:24;;;;;;;31.43;18.47;;;;;;;;;;785231;177;919326;-62
2024/01/31 06:47:49;;;;;;;37.53;21.50;;;;;;;;;;782002;178;919142;-65
2024/01/31 06:50:14;;;;;;;29.87;18.73;;;;;;;;;;785910;177;919476;-65
2024/01/31 06:52:40;;;;;;;36.97;20.83;;;;;;;;;;789983;177;915584;-66
2024/01/31 06:55:06;;;;;;;37.30;20.40;;;;;;;;;;780649;177;920401;-65
2024/01/31 06:57:34;;;;;;;35.73;19.97;;;;;;;;;;779152;177;922291;-62
2024/01/31 06:59:58;;;;;;;35.53;20.30;;;;;;;;;;787137;177;920902;-62
2024/01/31 07:02:25;;;;;;;33.87;19.37;;;;;;;;;;777883;177;919275;-65
2024/01/31 07:04:50;;;;;;;29.10;17.03;;;;;;;;;;778914;178;918970;-65
2024/01/31 07:07:15;;;;;;;39.00;20.27;;;;;;;;;;780984;178;1008656;-65
2024/01/31 07:09:41;;;;;;;29.77;18.60;;;;;;;;;;782698;178;1015319;-66
2024/01/31 07:12:07;;;;;;;32.73;19.50;;;;;;;;;;782418;177;921963;-67
2024/01/31 07:14:33;;;;;;;32.58;18.67;;;;;;;;;;783822;176;1007504;-65
2024/01/31 07:16:59;;;;;;;31.57;17.80;;;;;;;;;;787412;177;920379;-63
2024/01/31 07:19:25;;;;;;;34.63;17.63;;;;;;;;;;781479;177;914222;-62
2024/01/31 07:21:51;;;;;;;35.10;18.67;;;;;;;;;;783341;177;916247;-65
2024/01/31 07:24:17;;;;;;;35.07;19.60;;;;;;;;;;781261;177;920209;-62
2024/01/31 07:26:42;;;;;;;36.47;19.50;;;;;;;;;;786289;177;912221;-66
2024/01/31 07:29:10;;;;;;;34.40;19.90;;;;;;;;;;782131;176;919654;-63
2024/01/31 07:31:35;;;;;;;36.70;23.07;;;;;;;;;;775133;180;918247;-66
2024/01/31 07:34:01;;;;;;;35.57;20.50;;;;;;;;;;781294;178;919512;-67
2024/01/31 07:36:27;;;;;;;33.90;19.53;;;;;;;;;;782816;177;818064;-65
2024/01/31 07:38:53;;;;;;;35.67;19.10;;;;;;;;;;781555;176;920675;-63
2024/01/31 07:41:18;;;;;;;31.73;19.43;;;;;;;;;;786247;177;919884;-65
2024/01/31 07:43:44;;;;;;;35.07;18.70;;;;;;;;;;777798;177;830525;-62
2024/01/31 07:46:10;;;;;;;34.17;19.40;;;;;;;;;;782153;177;918820;-63
2024/01/31 07:48:36;;;;;;;32.23;19.00;;;;;;;;;;784425;177;927669;-62
2024/01/31 07:51:02;;;;;;;36.07;20.90;;;;;;;;;;776781;178;918929;-65
2024/01/31 07:53:28;;;;;;;34.07;22.53;;;;;;;;;;781146;176;918640;-63
2024/01/31 07:55:54;;;;;;;40.70;21.00;;;;;;;;;;782817;177;921336;-64
2024/01/31 07:58:19;;;;;;;38.33;21.23;;;;;;;;;;776250;179;923972;-63
2024/01/31 08:00:45;;;;;;;35.17;22.00;;;;;;;;;;781988;176;917809;-62
2024/01/31 08:03:11;;;;;;;36.23;20.60;;;;;;;;;;783861;176;918996;-62
2024/01/31 08:05:37;;;;;;;34.50;22.13;;;;;;;;;;788545;177;914513;-63
2024/01/31 08:08:03;;;;;;;37.70;21.53;;;;;;;;;;782384;177;817030;-62
2024/01/31 08:10:29;;;;;;;38.92;20.37;;;;;;;;;;776952;178;918375;-62
2024/01/31 08:12:55;;;;;;;32.53;20.20;;;;;;;;;;783420;178;815646;-63
2024/01/31 08:15:21;;;;;;;35.27;20.93;;;;;;;;;;781114;177;918571;-63
2024/01/31 08:17:46;;;;;;;39.37;21.73;;;;;;;;;;779506;178;943228;-63
2024/01/31 08:20:12;;;;;;;40.90;22.77;;;;;;;;;;787062;178;918094;-63
2024/01/31 08:22:39;;;;;;;33.90;21.90;;;;;;;;;;781441;178;922885;-63
2024/01/31 08:25:05;;;;;;;32.93;21.47;;;;;;;;;;777413;177;918760;-64
2024/01/31 08:27:31;;;;;;;38.37;23.77;;;;;;;;;;780293;177;920050;-65
2024/01/31 08:29:57;;;;;;;39.27;22.70;;;;;;;;;;784748;179;918485;-64
2024/01/31 08:32:23;;;;;;;35.30;23.07;;;;;;;;;;782152;177;921138;-66
2024/01/31 08:34:48;;;;;;;37.93;23.07;;;;;;;;;;779025;178;920501;-65
2024/01/31 08:37:14;;;;;;;38.90;23.80;;;;;;;;;;784758;177;818216;-65
2024/01/31 08:39:40;;;;;;;39.27;23.20;;;;;;;;;;779801;177;917185;-63
2024/01/31 08:42:06;;;;;;;45.43;26.80;;;;;;;;;;775696;178;918617;-63
2024/01/31 08:44:32;;;;;;;44.97;29.40;;;;;;;;;;783174;178;918710;-66
2024/01/31 08:46:58;;;;;;;39.80;21.50;;;;;;;;;;782757;176;816649;-66
2024/01/31 08:49:23;;;;;;;39.80;22.80;;;;;;;;;;784927;176;816695;-66
2024/01/31 08:51:51;;;;;;;40.47;23.30;;;;;;;;;;781314;177;926517;-66
2024/01/31 08:54:15;;;;;;;44.20;23.60;;;;;;;;;;778485;179;918085;-66
2024/01/31 08:56:41;;;;;;;42.77;25.40;;;;;;;;;;786517;177;919230;-66
2024/01/31 08:59:07;;;;;;;43.87;27.00;;;;;;;;;;779442;177;919363;-67
2024/01/31 09:01:33;;;;;;;46.13;24.47;;;;;;;;;;784467;177;919077;-67
2024/01/31 09:03:59;;;;;;;43.17;24.67;;;;;;;;;;781924;177;919386;-66
2024/01/31 09:06:24;;;;;;;36.47;21.80;;;;;;;;;;782418;177;819149;-67
2024/01/31 09:08:50;;;;;;;36.37;20.67;;;;;;;;;;793470;175;927071;-67
2024/01/31 09:11:16;;;;;;;41.83;20.27;;;;;;;;;;786867;175;913916;-70
2024/01/31 09:13:42;;;;;;;41.10;21.73;;;;;;;;;;782264;176;918846;-66
2024/01/31 09:16:08;;;;;;;36.77;18.80;;;;;;;;;;783575;177;1018269;-68
2024/01/31 09:18:34;;;;;;;36.60;22.20;;;;;;;;;;778447;178;1005329;-68
2024/01/31 09:21:00;;;;;;;41.63;22.37;;;;;;;;;;776784;177;1020094;-66
2024/01/31 09:23:25;;;;;;;34.53;18.20;;;;;;;;;;780755;178;923163;-65
2024/01/31 09:25:51;;;;;;;39.20;20.33;;;;;;;;;;788914;177;918905;-66
2024/01/31 09:28:17;;;;;;;41.30;23.23;;;;;;;;;;777525;178;918789;-66
2024/01/31 09:30:44;;;;;;;38.87;21.67;;;;;;;;;;780657;177;903042;-65
2024/01/31 09:33:09;;;;;;;37.43;19.00;;;;;;;;;;777774;178;919334;-66
2024/01/31 09:35:35;;;;;;;36.20;19.30;;;;;;;;;;784543;178;818324;-66
2024/01/31 09:38:00;;;;;;;41.07;22.67;;;;;;;;;;786297;177;918997;-65
2024/01/31 09:40:26;;;;;;;46.47;21.60;;;;;;;;;;783967;178;1018656;-65
2024/01/31 09:42:52;;;;;;;30.17;20.00;;;;;;;;;;781984;178;917997;-67
2024/01/31 09:45:18;;;;;;;39.03;20.10;;;;;;;;;;777952;178;920338;-65
2024/01/31 09:47:44;;;;;;;34.30;20.87;;;;;;;;;;783385;177;918862;-65
2024/01/31 09:50:10;;;;;;;37.43;21.40;;;;;;;;;;787620;177;915577;-65
2024/01/31 09:52:36;;;;;;;34.63;20.97;;;;;;;;;;780505;177;914641;-66
2024/01/31 09:55:04;;;;;;;38.53;21.50;;;;;;;;;;777902;176;919321;-65
2024/01/31 09:57:27;;;;;;;33.97;19.37;;;;;;;;;;784992;178;918568;-65
2024/01/31 09:59:53;;;;;;;38.77;22.87;;;;;;;;;;780981;178;920389;-65
2024/01/31 10:02:19;;;;;;;33.60;21.23;;;;;;;;;;779439;178;918132;-65
2024/01/31 10:04:45;;;;;;;35.93;19.93;;;;;;;;;;781684;178;918468;-65
2024/01/31 10:07:11;;;;;;;34.80;19.05;;;;;;;;;;774873;178;919491;-64
2024/01/31 10:09:36;;;;;;;38.77;21.50;;;;;;;;;;774557;178;819843;-65
2024/01/31 10:12:02;;;;;;;41.30;22.70;;;;;;;;;;786274;178;918506;-67
2024/01/31 10:14:28;;;;;;;33.30;20.73;;;;;;;;;;775880;178;917156;-64
2024/01/31 10:16:54;;;;;;;34.57;21.77;;;;;;;;;;774343;178;918665;-65
2024/01/31 10:19:20;;;;;;;47.93;24.60;;;;;;;;;;775366;178;919681;-66
2024/01/31 10:21:46;;;;;;;37.10;20.65;;;;;;;;;;782214;178;919078;-65
2024/01/31 10:24:12;;;;;;;31.70;19.60;;;;;;;;;;779199;175;1021251;-65
2024/01/31 10:26:38;;;;;;;34.92;21.48;;;;;;;;;;779581;177;922317;-67
2024/01/31 10:29:03;;;;;;;35.90;20.70;;;;;;;;;;788711;177;815638;-64
2024/01/31 10:31:29;;;;;;;39.33;20.25;;;;;;;;;;782812;177;815927;-66
2024/01/31 10:33:55;;;;;;;44.73;23.57;;;;;;;;;;785319;178;755496;-64
2024/01/31 10:36:21;;;;;;;36.22;21.23;;;;;;;;;;783380;178;918807;-66
2024/01/31 10:38:47;;;;;;;35.77;21.73;;;;;;;;;;776490;180;945783;-67
2024/01/31 10:41:15;;;;;;;43.13;24.83;;;;;;;;;;775706;179;919745;-63
2024/01/31 10:43:39;;;;;;;44.47;23.70;;;;;;;;;;781665;178;916245;-64
2024/01/31 10:46:04;;;;;;;38.53;21.60;;;;;;;;;;783366;180;921744;-64
2024/01/31 10:48:30;;;;;;;43.53;21.27;;;;;;;;;;774309;177;918534;-64
2024/01/31 10:50:56;;;;;;;34.00;20.90;;;;;;;;;;780879;177;918854;-66
2024/01/31 10:53:22;;;;;;;38.53;21.00;;;;;;;;;;779554;178;919504;-65
2024/01/31 10:55:48;;;;;;;39.67;21.77;;;;;;;;;;778682;178;909306;-66
2024/01/31 10:58:14;;;;;;;41.23;23.73;;;;;;;;;;783297;176;919377;-67
2024/01/31 11:00:40;;;;;;;31.35;21.23;;;;;;;;;;782784;178;1024487;-67
2024/01/31 11:03:05;;;;;;;36.83;21.50;;;;;;;;;;776652;174;922178;-66
2024/01/31 11:05:31;;;;;;;43.37;25.80;;;;;;;;;;785240;177;916882;-63
2024/01/31 11:07:57;;;;;;;45.87;22.30;;;;;;;;;;784386;178;917587;-67
2024/01/31 11:10:23;;;;;;;39.80;23.93;;;;;;;;;;781076;178;912019;-67
2024/01/31 11:12:58;;;;;;;38.10;23.43;;;;;;;;;;780131;178;918710;-66
2024/01/31 11:15:28;;;;;;;41.27;23.70;;;;;;;;;;781344;178;909997;-66
2024/01/31 11:18:16;;;;;;;39.40;24.35;;;;;;;;;;784138;177;919069;-67
2024/01/31 11:20:45;;;;;;;46.33;26.52;;;;;;;;;;781948;176;915587;-66
2024/01/31 11:23:13;;;;;;;42.70;24.20;;;;;;;;;;782975;177;918470;-66
2024/01/31 11:25:39;;;;;;;41.73;23.03;;;;;;;;;;777113;178;1018965;-64
2024/01/31 11:28:05;;;;;;;48.10;26.67;;;;;;;;;;778326;178;917293;-66
2024/01/31 11:30:31;;;;;;;39.53;22.40;;;;;;;;;;784301;178;765266;-65
2024/01/31 11:32:57;;;;;;;40.67;25.63;;;;;;;;;;776067;178;1020026;-64
2024/01/31 11:35:25;;;;;;;38.67;23.33;;;;;;;;;;781142;178;918988;-64
2024/01/31 11:37:49;;;;;;;39.73;24.87;;;;;;;;;;784294;176;919234;-66
2024/01/31 11:40:14;;;;;;;38.00;23.87;;;;;;;;;;784670;177;918058;-65
2024/01/31 11:42:40;;;;;;;39.37;23.77;;;;;;;;;;778942;177;928066;-63
2024/01/31 11:45:06;;;;;;;41.37;23.67;;;;;;;;;;775588;177;919926;-65
2024/01/31 11:47:32;;;;;;;42.60;23.50;;;;;;;;;;786275;177;918985;-66
2024/01/31 11:50:00;;;;;;;43.37;22.77;;;;;;;;;;776787;177;921885;-64
2024/01/31 11:52:26;;;;;;;34.40;22.13;;;;;;;;;;780484;176;923255;-63
2024/01/31 11:54:52;;;;;;;41.30;24.87;;;;;;;;;;785338;174;920586;-66
2024/01/31 11:57:17;;;;;;;41.80;24.23;;;;;;;;;;774420;178;921208;-65
2024/01/31 11:59:43;;;;;;;41.40;23.37;;;;;;;;;;781344;177;818524;-64
2024/01/31 12:02:09;;;;;;;45.50;24.67;;;;;;;;;;779255;177;924383;-66
2024/01/31 12:04:35;;;;;;;45.73;26.10;;;;;;;;;;784938;177;817136;-63
2024/01/31 12:07:03;;;;;;;42.73;25.30;;;;;;;;;;776356;177;842219;-66
2024/01/31 12:09:29;;;;;;;46.97;25.77;;;;;;;;;;780736;178;933951;-64
2024/01/31 12:11:54;;;;;;;41.67;25.70;;;;;;;;;;784782;177;920536;-66
2024/01/31 12:14:20;;;;;;;44.90;24.13;;;;;;;;;;778926;177;918757;-65
2024/01/31 12:16:46;;;;;;;45.60;25.02;;;;;;;;;;777882;177;919528;-66
2024/01/31 12:19:12;;;;;;;44.90;25.13;;;;;;;;;;786909;177;918829;-64
2024/01/31 12:21:40;;;;;;;39.77;24.37;;;;;;;;;;787072;178;920062;-64
2024/01/31 12:24:06;;;;;;;43.40;25.30;;;;;;;;;;779808;177;919073;-66
2024/01/31 12:26:31;;;;;;;35.57;24.70;;;;;;;;;;778025;178;919165;-65
2024/01/31 12:28:57;;;;;;;46.93;25.30;;;;;;;;;;786342;177;910940;-65
2024/01/31 12:31:23;;;;;;;42.97;25.50;;;;;;;;;;782063;177;817055;-66
2024/01/31 12:33:49;;;;;;;40.63;25.90;;;;;;;;;;785277;176;921168;-64
2024/01/31 12:36:15;;;;;;;48.23;27.97;;;;;;;;;;782108;178;913135;-67
2024/01/31 12:38:41;;;;;;;46.50;25.40;;;;;;;;;;779474;177;915569;-65
2024/01/31 12:41:06;;;;;;;47.97;26.87;;;;;;;;;;778289;178;810072;-65
2024/01/31 12:43:32;;;;;;;39.97;26.23;;;;;;;;;;787555;178;621635;-65
2024/01/31 12:45:58;;;;;;;45.63;24.77;;;;;;;;;;777892;178;919542;-64
2024/01/31 12:48:24;;;;;;;46.20;28.80;;;;;;;;;;785993;177;921078;-66
2024/01/31 12:50:51;;;;;;;51.30;27.57;;;;;;;;;;779504;177;919533;-64
2024/01/31 12:53:16;;;;;;;50.73;28.00;;;;;;;;;;781450;178;812459;-66
2024/01/31 12:55:42;;;;;;;42.23;26.00;;;;;;;;;;777644;178;909865;-65
2024/01/31 12:58:07;;;;;;;48.80;27.73;;;;;;;;;;782155;175;618974;-67
2024/01/31 13:00:33;;;;;;;45.77;27.30;;;;;;;;;;788674;177;629281;-64
2024/01/31 13:02:59;;;;;;;38.63;25.93;;;;;;;;;;778238;177;914066;-64
2024/01/31 13:05:25;;;;;;;46.93;26.90;;;;;;;;;;782394;177;920289;-64
2024/01/31 13:07:51;;;;;;;46.90;27.57;;;;;;;;;;785102;177;801960;-64
2024/01/31 13:10:17;;;;;;;45.27;26.57;;;;;;;;;;783468;178;830608;-66
2024/01/31 13:12:43;;;;;;;48.73;27.97;;;;;;;;;;782956;177;916672;-66
2024/01/31 13:15:09;;;;;;;44.50;24.60;;;;;;;;;;783225;178;873494;-66
2024/01/31 13:17:35;;;;;;;46.30;27.23;;;;;;;;;;784618;177;918811;-66
2024/01/31 13:20:02;;;;;;;49.40;29.57;;;;;;;;;;777244;177;916796;-65
2024/01/31 13:22:26;;;;;;;48.43;27.93;;;;;;;;;;779431;178;923222;-63
2024/01/31 13:24:52;;;;;;;52.13;26.83;;;;;;;;;;786643;177;918704;-66
2024/01/31 13:27:18;;;;;;;45.07;27.27;;;;;;;;;;781197;177;920805;-66
2024/01/31 13:29:44;;;;;;;56.53;30.67;;;;;;;;;;781599;177;944049;-67
2024/01/31 13:32:10;;;;;;;56.27;29.33;;;;;;;;;;783439;178;916224;-65
2024/01/31 13:34:36;;;;;;;48.27;27.37;;;;;;;;;;781946;177;920089;-68
2024/01/31 13:37:03;;;;;;;58.03;30.17;;;;;;;;;;779939;177;916457;-64
2024/01/31 13:39:27;;;;;;;56.10;28.90;;;;;;;;;;785418;178;817128;-66
2024/01/31 13:41:55;;;;;;;48.23;28.80;;;;;;;;;;783753;178;1019972;-63
2024/01/31 13:44:19;;;;;;;51.17;29.50;;;;;;;;;;776986;177;1017027;-65
2024/01/31 13:46:45;;;;;;;50.92;30.95;;;;;;;;;;780598;177;914201;-66
2024/01/31 13:49:12;;;;;;;58.50;33.20;;;;;;;;;;786613;177;813395;-67
2024/01/31 13:51:37;;;;;;;52.70;29.25;;;;;;;;;;782556;178;918355;-63
2024/01/31 13:54:02;;;;;;;54.93;31.00;;;;;;;;;;779589;177;917284;-64
2024/01/31 13:56:28;;;;;;;48.22;27.77;;;;;;;;;;788425;177;940079;-64